Time,TemperatureF,DewpointF,PressureIn,WindDirection,WindDirectionDegrees,WindSpeedMPH,WindSpeedGustMPH,Humidity,HourlyPrecipIn,Conditions,Clouds,dailyrainin,SolarRadiationWatts/m^2,SoftwareType,DateUTC
2013-08-20 00:03:00,64.0,63.0,-100.00,East,100,0.0,0.0,98,0.00,,,0.00,0.000000,,2013-08-20 04:03:00,
2013-08-20 00:13:00,64.0,63.0,-100.00,East,100,0.0,0.0,98,0.00,,,0.00,0.000000,,2013-08-20 04:13:00,
2013-08-20 00:54:00,63.0,63.0,-100.00,ESE,104,0.0,0.0,99,0.00,,,0.00,0.000000,,2013-08-20 04:54:00,
2013-08-20 01:02:00,63.0,63.0,-100.00,ESE,104,0.0,0.0,99,0.00,,,0.00,0.000000,,2013-08-20 05:02:00,
2013-08-20 01:12:00,63.0,63.0,-100.00,ESE,104,0.0,0.0,99,0.00,,,0.00,0.000000,,2013-08-20 05:12:00,
2013-08-20 01:22:00,63.0,63.0,-100.00,ESE,104,0.0,0.0,99,0.00,,,0.00,0.000000,,2013-08-20 05:22:00,
2013-08-20 01:52:00,62.0,62.0,-100.00,East,96,0.0,2.0,99,0.00,,,0.00,0.000000,,2013-08-20 05:52:00,
2013-08-20 02:02:00,62.0,62.0,-100.00,East,96,0.0,2.0,99,0.00,,,0.00,0.000000,,2013-08-20 06:02:00,
2013-08-20 02:11:00,62.0,62.0,-100.00,East,96,0.0,2.0,99,0.00,,,0.00,0.000000,,2013-08-20 06:11:00,
2013-08-20 02:21:00,62.0,62.0,-100.00,East,96,0.0,2.0,99,0.00,,,0.00,0.000000,,2013-08-20 06:21:00,
2013-08-20 02:52:00,62.0,62.0,-100.00,East,101,0.0,0.0,99,0.00,,,0.00,0.000000,,2013-08-20 06:52:00,
2013-08-20 03:01:00,62.0,62.0,-100.00,East,101,0.0,0.0,99,0.00,,,0.00,0.000000,,2013-08-20 07:01:00,
2013-08-20 03:11:00,62.0,62.0,-100.00,East,101,0.0,0.0,99,0.00,,,0.00,0.000000,,2013-08-20 07:11:00,
2013-08-20 03:22:00,62.0,62.0,-100.00,East,101,0.0,0.0,99,0.00,,,0.00,0.000000,,2013-08-20 07:22:00,
2013-08-20 03:52:00,61.0,61.0,-100.00,ESE,110,0.0,0.0,99,0.00,,,0.00,0.000000,,2013-08-20 07:52:00,
2013-08-20 04:02:00,61.0,61.0,-100.00,ESE,110,0.0,0.0,99,0.00,,,0.00,0.000000,,2013-08-20 08:02:00,
2013-08-20 04:11:00,61.0,61.0,-100.00,ESE,110,0.0,0.0,99,0.00,,,0.00,0.000000,,2013-08-20 08:11:00,
2013-08-20 04:21:00,61.0,61.0,-100.00,ESE,110,0.0,0.0,99,0.00,,,0.00,0.000000,,2013-08-20 08:21:00,
2013-08-20 04:52:00,61.0,61.0,-100.00,ENE,78,0.0,0.0,100,0.00,,,0.00,0.000000,,2013-08-20 08:52:00,
2013-08-20 05:01:00,61.0,61.0,-100.00,ENE,78,0.0,0.0,100,0.00,,,0.00,0.000000,,2013-08-20 09:01:00,
2013-08-20 05:11:00,61.0,61.0,-100.00,ENE,78,0.0,0.0,100,0.00,,,0.00,0.000000,,2013-08-20 09:11:00,
2013-08-20 05:21:00,61.0,61.0,-100.00,ENE,78,0.0,0.0,100,0.00,,,0.00,0.000000,,2013-08-20 09:21:00,
2013-08-20 05:53:00,60.0,60.0,-100.00,South,174,0.0,0.0,100,0.00,,,0.00,0.000000,,2013-08-20 09:53:00,
2013-08-20 06:04:00,60.0,60.0,-100.00,South,174,0.0,0.0,100,0.00,,,0.00,0.000000,,2013-08-20 10:04:00,
2013-08-20 06:12:00,60.0,60.0,-100.00,South,174,0.0,0.0,100,0.00,,,0.00,0.000000,,2013-08-20 10:12:00,
2013-08-20 06:22:00,60.0,60.0,-100.00,South,174,0.0,0.0,100,0.00,,,0.00,0.000000,,2013-08-20 10:22:00,
2013-08-20 06:52:00,60.0,60.0,-100.00,SE,130,0.0,0.0,100,0.00,,,0.00,0.000000,,2013-08-20 10:52:00,
2013-08-20 07:02:00,60.0,60.0,-100.00,SE,130,0.0,0.0,100,0.00,,,0.00,0.000000,,2013-08-20 11:02:00,
2013-08-20 07:11:00,60.0,60.0,-100.00,SE,130,0.0,0.0,100,0.00,,,0.00,0.000000,,2013-08-20 11:11:00,
2013-08-20 07:22:00,60.0,60.0,-100.00,SE,130,0.0,0.0,100,0.00,,,0.00,0.000000,,2013-08-20 11:22:00,
2013-08-20 07:52:00,59.0,59.0,-100.00,SSE,150,0.0,0.0,100,0.00,,,0.00,9.000000,,2013-08-20 11:52:00,
2013-08-20 08:01:00,59.0,59.0,-100.00,SSE,150,0.0,0.0,100,0.00,,,0.00,9.000000,,2013-08-20 12:01:00,
2013-08-20 08:12:00,59.0,59.0,-100.00,SSE,150,0.0,0.0,100,0.00,,,0.00,9.000000,,2013-08-20 12:12:00,
2013-08-20 08:21:00,59.0,59.0,-100.00,SSE,150,0.0,0.0,100,0.00,,,0.00,9.000000,,2013-08-20 12:21:00,
2013-08-20 08:52:00,61.0,61.0,-100.00,SE,127,0.0,0.0,100,0.00,,,0.00,68.000000,,2013-08-20 12:52:00,
2013-08-20 09:02:00,61.0,61.0,-100.00,SE,127,0.0,0.0,100,0.00,,,0.00,68.000000,,2013-08-20 13:02:00,
2013-08-20 09:11:00,61.0,61.0,-100.00,SE,127,0.0,0.0,100,0.00,,,0.00,68.000000,,2013-08-20 13:11:00,
2013-08-20 09:22:00,61.0,61.0,-100.00,SE,127,0.0,0.0,100,0.00,,,0.00,68.000000,,2013-08-20 13:22:00,
2013-08-20 09:52:00,68.0,67.0,-100.00,NW,321,1.0,2.0,97,0.00,,,0.00,286.000000,,2013-08-20 13:52:00,
2013-08-20 10:02:00,68.0,67.0,-100.00,NW,321,1.0,2.0,97,0.00,,,0.00,286.000000,,2013-08-20 14:02:00,
2013-08-20 10:11:00,68.0,67.0,-100.00,NW,321,1.0,2.0,97,0.00,,,0.00,286.000000,,2013-08-20 14:11:00,
2013-08-20 10:21:00,68.0,67.0,-100.00,NW,321,1.0,2.0,97,0.00,,,0.00,286.000000,,2013-08-20 14:21:00,
2013-08-20 10:52:00,75.0,67.0,-100.00,WSW,251,1.0,2.0,77,0.00,,,0.00,451.000000,,2013-08-20 14:52:00,
2013-08-20 11:02:00,75.0,67.0,-100.00,WSW,251,1.0,2.0,77,0.00,,,0.00,451.000000,,2013-08-20 15:02:00,
2013-08-20 11:11:00,75.0,67.0,-100.00,WSW,251,1.0,2.0,77,0.00,,,0.00,451.000000,,2013-08-20 15:11:00,
2013-08-20 11:22:00,75.0,67.0,-100.00,WSW,251,1.0,2.0,77,0.00,,,0.00,451.000000,,2013-08-20 15:22:00,
2013-08-20 11:23:00,-999.0,-99.9,-100.00,WSW,246,2.0,4.0,73,0.00,,,0.00,627.000000,,2013-08-20 15:23:00,
2013-08-20 11:54:00,80.0,71.0,-100.00,WSW,246,2.0,4.0,73,0.00,,,0.00,627.000000,,2013-08-20 15:54:00,
2013-08-20 12:04:00,80.0,71.0,-100.00,WSW,246,2.0,4.0,73,0.00,,,0.00,627.000000,,2013-08-20 16:04:00,
2013-08-20 12:15:00,80.0,71.0,-100.00,WSW,246,2.0,4.0,73,0.00,,,0.00,627.000000,,2013-08-20 16:15:00,
2013-08-20 12:23:00,82.0,69.0,-100.00,NNW,346,2.0,5.0,64,0.00,,,0.00,788.000000,,2013-08-20 16:23:00,
2013-08-20 12:53:00,82.0,69.0,-100.00,NNW,346,2.0,5.0,64,0.00,,,0.00,788.000000,,2013-08-20 16:53:00,
2013-08-20 13:03:00,82.0,69.0,-100.00,NNW,346,2.0,5.0,64,0.00,,,0.00,788.000000,,2013-08-20 17:03:00,
2013-08-20 13:12:00,82.0,69.0,-100.00,NNW,346,2.0,5.0,64,0.00,,,0.00,788.000000,,2013-08-20 17:12:00,
2013-08-20 13:52:00,84.0,68.0,-100.00,North,355,3.0,5.0,58,0.00,,,0.00,927.000000,,2013-08-20 17:52:00,
2013-08-20 14:02:00,84.0,68.0,-100.00,North,355,3.0,5.0,58,0.00,,,0.00,927.000000,,2013-08-20 18:02:00,
2013-08-20 14:12:00,84.0,68.0,-100.00,North,355,3.0,5.0,58,0.00,,,0.00,927.000000,,2013-08-20 18:12:00,
2013-08-20 14:22:00,84.0,68.0,-100.00,North,355,3.0,5.0,58,0.00,,,0.00,927.000000,,2013-08-20 18:22:00,
2013-08-20 14:52:00,85.0,65.0,-100.00,NNW,330,3.0,6.0,51,0.00,,,0.00,958.000000,,2013-08-20 18:52:00,
2013-08-20 15:01:00,85.0,65.0,-100.00,NNW,330,3.0,6.0,51,0.00,,,0.00,958.000000,,2013-08-20 19:01:00,
2013-08-20 15:11:00,85.0,65.0,-100.00,NNW,330,3.0,6.0,51,0.00,,,0.00,958.000000,,2013-08-20 19:11:00,
2013-08-20 15:22:00,85.0,65.0,-100.00,NNW,330,3.0,6.0,51,0.00,,,0.00,958.000000,,2013-08-20 19:22:00,
2013-08-20 15:53:00,87.0,63.0,-100.00,North,3,2.0,6.0,45,0.00,,,0.00,976.000000,,2013-08-20 19:53:00,
2013-08-20 16:03:00,87.0,63.0,-100.00,North,3,2.0,6.0,45,0.00,,,0.00,976.000000,,2013-08-20 20:03:00,
2013-08-20 16:12:00,87.0,63.0,-100.00,North,3,2.0,6.0,45,0.00,,,0.00,976.000000,,2013-08-20 20:12:00,
2013-08-20 16:22:00,87.0,63.0,-100.00,North,3,2.0,6.0,45,0.00,,,0.00,976.000000,,2013-08-20 20:22:00,
2013-08-20 16:52:00,85.0,68.0,-100.00,ENE,59,2.0,4.0,56,0.00,,,0.00,689.000000,,2013-08-20 20:52:00,
2013-08-20 17:03:00,85.0,68.0,-100.00,ENE,59,2.0,4.0,56,0.00,,,0.00,689.000000,,2013-08-20 21:03:00,
2013-08-20 17:11:00,85.0,68.0,-100.00,ENE,59,2.0,4.0,56,0.00,,,0.00,689.000000,,2013-08-20 21:11:00,
2013-08-20 17:22:00,85.0,68.0,-100.00,ENE,59,2.0,4.0,56,0.00,,,0.00,689.000000,,2013-08-20 21:22:00,
2013-08-20 17:23:00,84.0,64.0,-100.00,ESE,122,2.0,5.0,51,0.00,,,0.00,528.000000,,2013-08-20 21:23:00,
2013-08-20 18:14:00,84.0,64.0,-100.00,ESE,122,2.0,5.0,51,0.00,,,0.00,528.000000,,2013-08-20 22:14:00,
2013-08-20 18:54:00,79.0,67.0,-100.00,ESE,119,2.0,3.0,66,0.00,,,0.00,458.000000,,2013-08-20 22:54:00,
2013-08-20 19:03:00,79.0,67.0,-100.00,ESE,119,2.0,3.0,66,0.00,,,0.00,458.000000,,2013-08-20 23:03:00,
2013-08-20 19:12:00,79.0,67.0,-100.00,ESE,119,2.0,3.0,66,0.00,,,0.00,458.000000,,2013-08-20 23:12:00,
2013-08-20 19:22:00,79.0,67.0,-100.00,ESE,119,2.0,3.0,66,0.00,,,0.00,458.000000,,2013-08-20 23:22:00,
2013-08-20 19:23:00,73.0,68.0,-100.00,ESE,116,2.0,3.0,84,0.00,,,0.00,138.000000,,2013-08-20 23:23:00,
2013-08-20 21:11:00,69.0,64.0,-100.00,ESE,106,2.0,3.0,85,0.00,,,0.00,22.000000,,2013-08-21 01:11:00,
2013-08-20 21:22:00,69.0,64.0,-100.00,ESE,106,2.0,3.0,85,0.00,,,0.00,22.000000,,2013-08-21 01:22:00,
2013-08-20 21:52:00,67.0,63.0,-100.00,ESE,105,0.0,2.0,86,0.00,,,0.00,0.000000,,2013-08-21 01:52:00,
2013-08-20 22:02:00,67.0,63.0,-100.00,ESE,105,0.0,2.0,86,0.00,,,0.00,0.000000,,2013-08-21 02:02:00,
2013-08-20 22:12:00,67.0,63.0,-100.00,ESE,105,0.0,2.0,86,0.00,,,0.00,0.000000,,2013-08-21 02:12:00,
2013-08-20 22:22:00,67.0,63.0,-100.00,ESE,105,0.0,2.0,86,0.00,,,0.00,0.000000,,2013-08-21 02:22:00,
2013-08-20 22:23:00,66.0,65.0,-100.00,ESE,108,0.0,0.0,95,0.00,,,0.00,0.000000,,2013-08-21 02:23:00,
2013-08-20 22:52:00,66.0,65.0,-100.00,ESE,108,0.0,0.0,95,0.00,,,0.00,0.000000,,2013-08-21 02:52:00,
2013-08-20 23:02:00,66.0,65.0,-100.00,ESE,108,0.0,0.0,95,0.00,,,0.00,0.000000,,2013-08-21 03:02:00,
2013-08-20 23:12:00,66.0,65.0,-100.00,ESE,108,0.0,0.0,95,0.00,,,0.00,0.000000,,2013-08-21 03:12:00,
2013-08-20 23:23:00,66.0,65.0,-100.00,East,100,0.0,0.0,98,0.00,,,0.00,0.000000,,2013-08-21 03:23:00,
2013-08-20 23:55:00,66.0,65.0,-100.00,East,100,0.0,0.0,98,0.00,,,0.00,0.000000,,2013-08-21 03:55:00,